Time;durP1;ratioP1;P1;durP2;ratioP2;P2;SDS_P1;SDS_P2;PMS_P1;PMS_P2;Temp;Humidity;BMP_temperature;BMP_pressure;BME280_temperature;BME280_humidity;BME280_pressure;Samples;Min_cycle;Max_cycle;Signal;HPM_P1;HPM_P2
2022/10/10 00:02:12;;;;;;;3.63;2.90;;;;;;;19.04;44.03;99504.44;5052669;28;20037;-79
2022/10/10 00:04:37;;;;;;;4.75;3.00;;;;;;;19.03;44.03;99500.97;5036197;28;20068;-78
2022/10/10 00:07:03;;;;;;;7.03;3.00;;;;;;;19.00;43.98;99498.63;5056573;28;20033;-78
2022/10/10 00:09:28;;;;;;;4.78;3.08;;;;;;;19.02;44.18;99506.41;5041062;28;20035;-77
2022/10/10 00:11:54;;;;;;;3.67;2.90;;;;;;;19.01;44.14;99507.38;5056820;28;20068;-77
2022/10/10 00:14:19;;;;;;;4.57;2.70;;;;;;;18.96;44.36;99503.41;5056067;28;20467;-77
2022/10/10 00:16:45;;;;;;;3.83;2.60;;;;;;;18.95;44.24;99507.03;5035544;28;20509;-77
2022/10/10 00:19:11;;;;;;;4.50;2.88;;;;;;;18.91;44.36;99492.44;5036683;28;20021;-78
2022/10/10 00:21:36;;;;;;;4.85;2.75;;;;;;;18.89;44.42;99496.22;5054812;28;20064;-78
2022/10/10 00:24:02;;;;;;;7.90;2.80;;;;;;;18.92;44.30;99504.69;5048144;28;20037;-79
2022/10/10 00:26:28;;;;;;;5.65;2.92;;;;;;;18.89;44.38;99497.03;5023733;28;20112;-79
2022/10/10 00:28:54;;;;;;;4.70;2.85;;;;;;;18.83;44.42;99491.50;5055179;28;20540;-79
2022/10/10 00:31:19;;;;;;;6.10;2.88;;;;;;;18.80;44.39;99493.47;5035674;28;20103;-79
2022/10/10 00:33:45;;;;;;;3.88;2.80;;;;;;;18.82;44.39;99495.97;5019280;28;20036;-77
2022/10/10 00:36:10;;;;;;;5.13;2.90;;;;;;;18.80;44.40;99503.22;5052689;28;20523;-79
2022/10/10 00:38:36;;;;;;;4.95;2.75;;;;;;;18.78;44.64;99505.19;5052902;28;20040;-81
2022/10/10 00:41:02;;;;;;;4.97;3.35;;;;;;;18.75;44.63;99508.94;5052786;28;20083;-82
2022/10/10 00:43:27;;;;;;;7.18;2.70;;;;;;;18.69;44.72;99500.78;5036005;28;20024;-80
2022/10/10 00:45:53;;;;;;;6.13;3.10;;;;;;;18.70;44.85;99505.09;5019499;28;20040;-79
2022/10/10 00:48:24;;;;;;;7.75;3.22;;;;;;;18.65;44.82;99497.63;5052782;28;20033;-83
2022/10/10 00:50:49;;;;;;;7.40;3.03;;;;;;;18.69;44.79;99516.66;5036050;28;20511;-80
2022/10/10 00:53:16;;;;;;;4.80;2.78;;;;;;;18.61;45.03;99509.47;5068890;28;20021;-82
2022/10/10 00:55:41;;;;;;;5.43;3.00;;;;;;;18.63;44.98;99513.63;5035889;28;20053;-80
2022/10/10 00:58:07;;;;;;;3.78;2.83;;;;;;;18.62;44.97;99514.63;5035500;28;20507;-80
2022/10/10 01:00:32;;;;;;;6.28;2.80;;;;;;;18.60;44.92;99513.94;5018879;28;20045;-79
2022/10/10 01:02:58;;;;;;;10.38;3.03;;;;;;;18.60;45.02;99516.59;5035556;28;20025;-82
2022/10/10 01:05:23;;;;;;;5.50;2.92;;;;;;;18.57;45.07;99514.25;5052182;28;20400;-82
2022/10/10 01:07:49;;;;;;;3.70;2.70;;;;;;;18.56;45.20;99523.13;5035856;28;20404;-82
2022/10/10 01:10:15;;;;;;;5.65;3.00;;;;;;;18.54;45.38;99521.66;5051877;28;20090;-80
2022/10/10 01:12:50;;;;;;;5.90;2.78;;;;;;;18.53;45.49;99528.75;5018735;28;20032;-81
2022/10/10 01:15:15;;;;;;;6.90;3.00;;;;;;;18.50;45.43;99520.25;5067471;28;20492;-82
2022/10/10 01:17:46;;;;;;;4.90;2.90;;;;;;;18.44;45.53;99519.06;5052429;28;20045;-81
2022/10/10 01:20:24;;;;;;;4.30;2.92;;;;;;;18.46;45.43;99532.97;5051931;28;20396;-82
2022/10/10 01:23:04;;;;;;;4.57;3.28;;;;;;;18.47;45.63;99536.41;5034903;28;20040;-77
2022/10/10 01:25:39;;;;;;;5.88;3.30;;;;;;;18.46;45.49;99530.31;5068245;28;20496;-78
2022/10/10 01:28:36;;;;;;;4.68;2.67;;;;;;;18.44;45.43;99530.47;5051632;28;20108;-78
2022/10/10 01:31:03;;;;;;;4.63;2.97;;;;;;;18.43;45.68;99535.91;5068349;28;20485;-78
2022/10/10 01:33:44;;;;;;;5.47;2.97;;;;;;;18.40;45.61;99537.00;5018577;28;20412;-76
2022/10/10 01:36:15;;;;;;;5.70;3.10;;;;;;;18.39;45.62;99535.38;5051445;28;20106;-77
2022/10/10 01:38:50;;;;;;;7.07;3.30;;;;;;;18.38;45.65;99540.81;5054276;28;20052;-77
2022/10/10 01:41:39;;;;;;;4.10;2.97;;;;;;;18.41;45.70;99538.69;5039432;28;20028;-76
2022/10/10 01:44:05;;;;;;;4.72;2.97;;;;;;;18.40;45.64;99549.41;5070945;28;20507;-76
2022/10/10 01:46:31;;;;;;;4.97;3.33;;;;;;;18.39;45.67;99543.28;5054663;28;20029;-76
2022/10/10 01:48:56;;;;;;;6.03;3.05;;;;;;;18.38;45.59;99546.09;5037559;28;20044;-76
2022/10/10 01:51:50;;;;;;;4.50;3.13;;;;;;;18.35;46.09;99546.38;5037809;28;20036;-77
2022/10/10 01:54:27;;;;;;;4.55;3.00;;;;;;;18.30;45.71;99540.72;5072662;28;20024;-77
2022/10/10 01:56:58;;;;;;;3.50;2.95;;;;;;;18.30;45.97;99540.72;5072216;28;20040;-77
2022/10/10 01:59:26;;;;;;;3.50;2.83;;;;;;;18.26;46.10;99543.66;5072152;28;20079;-77
2022/10/10 02:01:59;;;;;;;5.93;3.08;;;;;;;18.25;46.11;99549.91;5072892;28;20021;-77
2022/10/10 02:04:45;;;;;;;6.50;2.83;;;;;;;18.23;46.27;99543.09;5038633;28;20028;-77
2022/10/10 02:07:25;;;;;;;8.60;3.00;;;;;;;18.22;46.29;99542.25;5038943;28;20039;-77
2022/10/10 02:09:51;;;;;;;6.22;3.13;;;;;;;18.20;46.18;99551.31;5039767;28;20060;-77
2022/10/10 02:12:16;;;;;;;7.70;3.25;;;;;;;18.21;45.90;99551.16;5054614;28;20460;-77
2022/10/10 02:14:43;;;;;;;4.93;3.00;;;;;;;18.20;46.01;99554.81;5054205;28;20028;-76
2022/10/10 02:17:10;;;;;;;4.40;3.25;;;;;;;18.19;45.94;99553.13;5037639;28;20148;-76
2022/10/10 02:19:37;;;;;;;5.25;3.17;;;;;;;18.15;46.01;99554.38;5037799;28;20040;-77
2022/10/10 02:22:03;;;;;;;3.67;2.80;;;;;;;18.08;46.09;99548.03;5037922;28;20036;-77
2022/10/10 02:24:28;;;;;;;6.65;3.22;;;;;;;18.06;46.08;99557.91;5037974;28;20602;-77
2022/10/10 02:26:58;;;;;;;4.50;3.08;;;;;;;18.04;46.31;99558.06;5056862;28;20024;-79
2022/10/10 02:29:27;;;;;;;7.80;3.13;;;;;;;18.05;46.33;99566.81;5042208;28;20039;-79
2022/10/10 02:32:10;;;;;;;6.60;3.08;;;;;;;18.05;46.40;99583.50;5041684;28;20029;-78
2022/10/10 02:34:38;;;;;;;6.13;3.50;;;;;;;18.00;46.34;99571.72;5042150;28;20033;-78
2022/10/10 02:37:06;;;;;;;5.25;3.28;;;;;;;18.02;46.44;99583.78;5058432;28;20178;-78
2022/10/10 02:39:34;;;;;;;4.70;3.00;;;;;;;18.03;46.61;99587.28;5042272;28;20145;-77
2022/10/10 02:41:59;;;;;;;4.43;3.00;;;;;;;18.02;46.46;99580.31;5058700;28;20047;-78
2022/10/10 02:44:25;;;;;;;5.65;3.40;;;;;;;18.02;46.45;99588.22;5041077;28;20037;-78
2022/10/10 02:46:50;;;;;;;2.85;2.45;;;;;;;18.01;46.51;99590.06;5058444;28;20064;-78
2022/10/10 02:49:23;;;;;;;4.47;3.10;;;;;;;17.97;46.48;99586.03;5075079;28;20028;-78
2022/10/10 02:51:48;;;;;;;6.13;3.22;;;;;;;18.02;46.40;99590.88;5058054;28;20052;-78
2022/10/10 02:54:14;;;;;;;7.72;2.92;;;;;;;18.03;46.34;99597.84;5041181;28;20025;-78
2022/10/10 02:56:39;;;;;;;6.82;3.20;;;;;;;17.97;46.42;99590.47;5074772;28;20091;-78
2022/10/10 02:59:05;;;;;;;6.18;3.20;;;;;;;17.98;46.34;99594.78;5057706;28;20028;-78
2022/10/10 03:01:30;;;;;;;5.72;3.15;;;;;;;17.97;46.65;99598.41;5075262;28;20067;-79
2022/10/10 03:03:55;;;;;;;5.22;3.28;;;;;;;17.97;46.47;99601.06;5040916;28;20090;-78
2022/10/10 03:06:21;;;;;;;6.50;3.30;;;;;;;17.97;46.34;99601.88;5057734;28;20051;-77
2022/10/10 03:08:46;;;;;;;4.80;3.25;;;;;;;17.92;46.54;99593.56;5074117;28;20033;-77
2022/10/10 03:11:12;;;;;;;5.20;3.25;;;;;;;17.95;46.50;99609.13;5040884;28;20068;-78
2022/10/10 03:13:37;;;;;;;5.05;3.30;;;;;;;17.89;46.69;99597.31;5074169;28;20035;-79
2022/10/10 03:16:05;;;;;;;4.95;2.90;;;;;;;17.96;46.60;99613.41;5057599;28;20372;-79
2022/10/10 03:18:31;;;;;;;5.40;3.10;;;;;;;17.96;46.37;99615.22;5041176;28;20044;-79
2022/10/10 03:20:56;;;;;;;6.88;3.17;;;;;;;17.93;46.41;99613.69;5057197;28;20305;-78
2022/10/10 03:23:23;;;;;;;7.70;2.97;;;;;;;17.87;46.74;99615.09;5075173;28;20029;-78
2022/10/10 03:25:49;;;;;;;5.65;3.30;;;;;;;17.82;46.64;99619.09;5040886;28;20032;-77
2022/10/10 03:28:15;;;;;;;6.47;3.50;;;;;;;17.79;46.68;99616.75;5057045;28;20482;-77
2022/10/10 03:30:40;;;;;;;4.72;3.20;;;;;;;17.83;46.79;99634.81;5056952;28;20388;-77
2022/10/10 03:33:06;;;;;;;5.30;3.13;;;;;;;17.78;46.42;99631.78;5041027;28;20173;-79
2022/10/10 03:35:31;;;;;;;4.93;3.10;;;;;;;17.80;46.48;99631.63;5073844;28;20044;-72
2022/10/10 03:37:57;;;;;;;7.03;3.30;;;;;;;17.83;46.55;99642.75;5039849;28;20028;-70
2022/10/10 03:40:23;;;;;;;4.78;3.22;;;;;;;17.84;46.48;99646.22;5073833;28;20399;-72
2022/10/10 03:42:48;;;;;;;5.80;3.25;;;;;;;17.79;46.48;99644.00;5056903;28;20035;-73
2022/10/10 03:45:14;;;;;;;5.65;2.70;;;;;;;17.99;54.45;99646.63;5056515;28;20041;-73
2022/10/10 03:47:39;;;;;;;3.63;2.80;;;;;;;18.06;50.84;99658.31;5072611;28;20588;-76
2022/10/10 03:50:05;;;;;;;4.78;2.97;;;;;;;18.01;50.01;99657.88;5040142;28;20036;-74
2022/10/10 03:52:31;;;;;;;6.35;2.67;;;;;;;17.97;49.10;99659.16;5040262;28;20418;-69
2022/10/10 03:54:56;;;;;;;8.55;3.33;;;;;;;17.93;48.76;99668.34;5039915;28;20035;-72
2022/10/10 03:57:21;;;;;;;4.45;3.00;;;;;;;17.92;48.13;99664.00;5056661;28;20056;-72
2022/10/10 03:59:47;;;;;;;5.13;3.38;;;;;;;17.80;48.00;99660.69;5074571;28;20397;-74
2022/10/10 04:02:12;;;;;;;7.05;3.08;;;;;;;17.83;47.72;99671.78;5073137;28;20032;-75
2022/10/10 04:04:38;;;;;;;4.93;3.35;;;;;;;17.81;47.61;99673.75;5054501;28;20044;-73
2022/10/10 04:07:04;;;;;;;10.00;3.67;;;;;;;17.76;47.42;99672.50;5073296;28;20032;-76
2022/10/10 04:09:29;;;;;;;8.50;3.90;;;;;;;17.77;47.34;99674.16;5039022;28;20060;-73
2022/10/10 04:11:55;;;;;;;5.18;3.63;;;;;;;17.77;47.24;99668.88;5055726;28;20059;-73
2022/10/10 04:14:20;;;;;;;4.65;3.30;;;;;;;17.71;47.19;99665.84;5072818;28;20052;-74
2022/10/10 04:16:46;;;;;;;7.50;3.55;;;;;;;17.69;46.93;99662.47;5055874;28;20051;-73
2022/10/10 04:19:11;;;;;;;7.15;3.40;;;;;;;17.72;46.98;99677.22;5056348;28;20032;-73
2022/10/10 04:21:37;;;;;;;8.68;4.68;;;;;;;17.70;47.01;99679.19;5056912;28;20036;-74
2022/10/10 04:24:02;;;;;;;7.07;3.75;;;;;;;17.70;47.09;99679.19;5072769;28;20056;-73
2022/10/10 04:26:28;;;;;;;7.35;3.55;;;;;;;17.66;46.97;99672.50;5073290;28;20028;-73
2022/10/10 04:28:53;;;;;;;6.65;3.75;;;;;;;17.66;46.75;99670.72;5055898;28;20035;-72
2022/10/10 04:31:19;;;;;;;12.40;4.05;;;;;;;17.68;46.99;99670.56;5056824;28;20028;-74
2022/10/10 04:33:44;;;;;;;7.25;3.72;;;;;;;17.75;46.75;99679.59;5072757;28;20028;-73
2022/10/10 04:36:10;;;;;;;5.78;3.45;;;;;;;17.89;46.58;99681.81;5072651;28;20028;-73
2022/10/10 04:38:35;;;;;;;5.60;3.60;;;;;;;18.06;46.21;99688.19;5055813;28;20037;-73
2022/10/10 04:41:01;;;;;;;9.88;4.15;;;;;;;18.32;45.68;99690.22;5039232;28;20460;-73
2022/10/10 04:43:27;;;;;;;7.63;4.07;;;;;;;18.53;45.05;99675.94;5056054;28;20024;-73
2022/10/10 04:45:54;;;;;;;9.68;4.20;;;;;;;18.86;44.46;99685.16;5038947;28;20085;-73
2022/10/10 04:48:20;;;;;;;7.65;3.95;;;;;;;19.14;43.75;99679.84;5039202;28;20054;-73
2022/10/10 04:50:53;;;;;;;5.03;3.60;;;;;;;19.55;42.94;99688.19;5039118;28;20033;-72
2022/10/10 04:53:18;;;;;;;5.82;3.65;;;;;;;19.87;42.36;99690.31;5039648;28;20549;-72
2022/10/10 04:55:44;;;;;;;9.35;3.85;;;;;;;20.21;41.34;99689.56;5055838;28;20024;-73
2022/10/10 04:58:10;;;;;;;8.88;3.78;;;;;;;20.67;40.70;99691.16;5035836;28;20052;-73
2022/10/10 05:00:37;;;;;;;6.13;3.38;;;;;;;21.10;39.99;99700.78;5035794;28;20059;-75
2022/10/10 05:03:02;;;;;;;8.48;3.53;;;;;;;21.52;38.83;99695.56;5052553;28;20124;-72
2022/10/10 05:05:28;;;;;;;9.98;3.55;;;;;;;21.92;38.06;99704.53;5052611;28;20112;-74
2022/10/10 05:07:53;;;;;;;12.88;4.10;;;;;;;22.34;37.07;99711.50;5052403;28;20052;-73
2022/10/10 05:10:19;;;;;;;16.90;5.38;;;;;;;22.69;36.20;99706.75;5051937;28;20033;-74
2022/10/10 05:12:44;;;;;;;15.80;6.32;;;;;;;23.07;35.31;99715.75;5052065;28;20396;-73
2022/10/10 05:15:10;;;;;;;12.93;5.88;;;;;;;23.42;35.17;99716.25;5052043;28;20030;-73
2022/10/10 05:17:35;;;;;;;9.35;5.60;;;;;;;23.73;34.54;99714.53;5053733;28;20061;-72
2022/10/10 05:20:01;;;;;;;17.05;5.97;;;;;;;24.07;33.86;99713.25;5051635;28;20033;-75
2022/10/10 05:22:26;;;;;;;14.90;6.10;;;;;;;24.37;33.33;99714.97;5051602;28;20044;-73
2022/10/10 05:24:52;;;;;;;12.30;5.88;;;;;;;24.67;32.74;99716.81;5051753;28;20036;-73
2022/10/10 05:27:17;;;;;;;5.75;3.05;;;;;;;25.05;35.76;99728.22;5045323;28;20569;-79
2022/10/10 05:29:43;;;;;;;14.02;4.43;;;;;;;25.37;33.99;99733.34;5039328;28;20040;-79
2022/10/10 05:32:08;;;;;;;11.57;5.20;;;;;;;25.64;32.25;99740.59;5044268;28;20037;-79
2022/10/10 05:34:34;;;;;;;18.83;5.45;;;;;;;26.02;31.19;99731.50;5038038;28;20029;-68
2022/10/10 05:36:59;;;;;;;12.68;5.03;;;;;;;26.42;30.93;99739.81;5072721;28;20082;-71
2022/10/10 05:39:25;;;;;;;13.15;5.10;;;;;;;26.82;30.42;99737.41;5072689;28;20510;-69
2022/10/10 05:41:50;;;;;;;18.08;5.18;;;;;;;27.22;30.04;99732.19;5070811;28;20039;-70
2022/10/10 05:44:16;;;;;;;15.68;5.03;;;;;;;27.57;29.62;99740.16;5071260;28;20031;-70
2022/10/10 05:46:41;;;;;;;18.58;5.07;;;;;;;27.88;29.90;99736.06;5071801;28;20037;-69
2022/10/10 05:49:07;;;;;;;10.93;5.30;;;;;;;28.13;28.74;99732.78;5054535;28;20032;-73
2022/10/10 05:51:32;;;;;;;15.80;5.28;;;;;;;28.36;27.44;99736.91;5038010;28;20032;-70
2022/10/10 05:53:59;;;;;;;19.98;5.43;;;;;;;28.48;27.19;99738.72;5054482;28;20089;-71
2022/10/10 05:56:24;;;;;;;15.10;5.35;;;;;;;28.64;26.60;99733.97;5037538;28;20440;-69
2022/10/10 05:58:50;;;;;;;25.33;5.57;;;;;;;28.98;26.38;99745.41;5071220;28;20480;-70
2022/10/10 06:01:16;;;;;;;37.40;5.82;;;;;;;29.20;25.79;99749.47;5054202;28;20032;-71
2022/10/10 06:03:41;;;;;;;39.72;5.80;;;;;;;29.44;25.22;99749.75;5054559;28;20094;-70
2022/10/10 06:06:07;;;;;;;26.25;5.65;;;;;;;29.66;24.63;99760.19;5071171;28;20066;-70
2022/10/10 06:08:33;;;;;;;41.83;6.20;;;;;;;29.93;24.53;99758.16;5054691;28;20479;-71
2022/10/10 06:11:03;;;;;;;27.48;6.30;;;;;;;30.11;24.20;99755.53;5054114;28;20073;-69
2022/10/10 06:13:29;;;;;;;22.20;6.13;;;;;;;30.39;23.91;99756.13;5054573;28;20029;-69
2022/10/10 06:15:54;;;;;;;19.48;6.43;;;;;;;30.55;23.42;99752.03;5071994;28;20105;-69
2022/10/10 06:18:20;;;;;;;19.70;6.72;;;;;;;30.81;23.04;99764.41;5070501;28;20053;-70
2022/10/10 06:20:45;;;;;;;21.90;7.38;;;;;;;30.92;22.46;99754.75;5054291;28;20465;-69
2022/10/10 06:23:11;;;;;;;19.77;5.80;;;;;;;31.11;23.90;99758.28;5055239;28;20048;-71
2022/10/10 06:25:37;;;;;;;29.08;6.07;;;;;;;31.24;22.53;99757.28;5053827;28;20086;-69
2022/10/10 06:28:02;;;;;;;22.42;5.53;;;;;;;31.45;21.94;99761.34;5071065;28;20033;-69
2022/10/10 06:30:28;;;;;;;20.63;5.13;;;;;;;31.62;22.10;99765.06;5070879;28;20036;-73
2022/10/10 06:32:53;;;;;;;20.63;5.10;;;;;;;31.84;21.71;99761.81;5070904;28;20497;-70
2022/10/10 06:35:19;;;;;;;19.33;5.30;;;;;;;32.15;21.50;99762.59;5037666;28;20039;-71
2022/10/10 06:37:44;;;;;;;17.67;4.97;;;;;;;32.31;21.00;99766.47;5054000;28;20033;-71
2022/10/10 06:40:10;;;;;;;15.52;4.65;;;;;;;32.56;20.80;99771.63;5053948;28;20032;-72
2022/10/10 06:42:35;;;;;;;14.73;4.57;;;;;;;32.69;20.43;99765.16;5053951;28;20034;-71
2022/10/10 06:45:01;;;;;;;12.82;4.55;;;;;;;33.08;20.10;99765.44;5054533;28;20095;-76
2022/10/10 06:47:27;;;;;;;10.05;4.82;;;;;;;33.52;19.75;99771.16;5038028;28;20483;-77
2022/10/10 06:49:52;;;;;;;14.35;4.60;;;;;;;33.98;19.33;99768.44;5054126;28;20539;-75
2022/10/10 06:52:18;;;;;;;13.07;4.40;;;;;;;34.45;18.87;99764.56;5037266;28;20028;-76
2022/10/10 06:54:44;;;;;;;16.42;4.13;;;;;;;34.99;18.13;99769.34;5052839;28;20115;-77
2022/10/10 06:57:09;;;;;;;11.30;4.20;;;;;;;35.43;17.58;99772.03;5053120;28;20137;-77
2022/10/10 06:59:35;;;;;;;22.77;4.78;;;;;;;35.78;17.28;99770.75;5071734;28;20032;-77
2022/10/10 07:02:00;;;;;;;16.27;4.53;;;;;;;36.14;17.14;99780.00;5037464;28;20450;-76
2022/10/10 07:04:26;;;;;;;17.30;4.45;;;;;;;36.35;16.86;99774.72;5037325;28;20025;-75
2022/10/10 07:06:51;;;;;;;16.60;4.20;;;;;;;36.52;16.64;99788.97;5055877;28;20039;-75
2022/10/10 07:09:18;;;;;;;18.40;4.60;;;;;;;36.54;16.52;99778.63;5038584;28;20056;-75
2022/10/10 07:11:44;;;;;;;11.88;3.97;;;;;;;36.59;16.25;99788.72;5056319;28;20028;-75
2022/10/10 07:14:13;;;;;;;9.02;3.90;;;;;;;36.43;16.38;99785.09;5057396;28;20028;-75
2022/10/10 07:16:39;;;;;;;14.82;4.25;;;;;;;36.22;16.95;99782.22;5041179;28;20131;-77
2022/10/10 07:19:04;;;;;;;17.60;4.68;;;;;;;36.01;17.03;99786.69;5057741;28;20028;-77
2022/10/10 07:21:30;;;;;;;13.88;4.03;;;;;;;35.95;17.20;99781.50;5057515;28;20039;-78
2022/10/10 07:23:55;;;;;;;14.57;4.50;;;;;;;35.93;17.16;99792.63;5057337;28;20476;-77
2022/10/10 07:26:21;;;;;;;15.35;4.65;;;;;;;35.86;17.29;99790.09;5057112;28;20035;-77
2022/10/10 07:28:50;;;;;;;13.73;4.72;;;;;;;35.84;17.28;99783.31;5057312;28;20028;-77
2022/10/10 07:31:15;;;;;;;22.02;4.97;;;;;;;35.80;17.14;99779.44;5040664;28;20033;-76
2022/10/10 07:33:43;;;;;;;12.45;4.38;;;;;;;35.77;17.16;99783.53;5040879;28;20028;-77
2022/10/10 07:36:09;;;;;;;9.20;4.72;;;;;;;35.69;17.08;99778.50;5040845;28;20495;-77
2022/10/10 07:38:35;;;;;;;16.65;5.22;;;;;;;35.70;17.18;99788.31;5040544;28;20036;-78
2022/10/10 07:41:04;;;;;;;11.63;4.60;;;;;;;35.75;17.20;99788.38;5057347;28;20044;-77
2022/10/10 07:43:29;;;;;;;15.30;5.10;;;;;;;35.83;17.19;99781.66;5040660;28;20029;-78
2022/10/10 07:45:55;;;;;;;16.25;5.07;;;;;;;35.66;17.04;99777.16;5040406;28;20055;-77
2022/10/10 07:48:20;;;;;;;18.05;4.90;;;;;;;35.50;17.19;99783.50;5040047;28;20479;-78
2022/10/10 07:50:46;;;;;;;14.85;4.53;;;;;;;35.08;17.47;99789.53;5040535;28;20048;-76
2022/10/10 07:53:11;;;;;;;16.13;4.82;;;;;;;35.31;17.25;99777.59;5056960;28;20036;-77
2022/10/10 07:55:41;;;;;;;8.60;4.28;;;;;;;35.50;17.18;99795.19;5057160;28;20033;-80
2022/10/10 07:58:07;;;;;;;10.52;3.90;;;;;;;35.65;17.03;99790.97;5056893;28;20028;-77
2022/10/10 08:00:34;;;;;;;14.10;4.30;;;;;;;35.70;17.31;99785.59;5040339;28;20035;-76
2022/10/10 08:03:00;;;;;;;9.17;3.80;;;;;;;35.79;17.18;99778.66;5057402;28;20048;-77
2022/10/10 08:05:25;;;;;;;8.55;3.70;;;;;;;35.73;17.15;99784.25;5040289;28;20484;-77
2022/10/10 08:07:51;;;;;;;9.80;3.65;;;;;;;35.23;17.45;99778.03;5056851;28;20447;-78
2022/10/10 08:10:16;;;;;;;8.50;3.60;;;;;;;35.04;17.71;99782.97;5057459;28;20529;-78
2022/10/10 08:12:43;;;;;;;9.82;3.63;;;;;;;34.73;18.34;99786.09;5056879;28;20446;-78
2022/10/10 08:15:09;;;;;;;8.93;3.97;;;;;;;34.81;18.24;99784.03;5057120;28;20471;-76
2022/10/10 08:17:35;;;;;;;7.88;3.80;;;;;;;34.46;18.50;99796.00;5056387;28;20110;-77
2022/10/10 08:20:00;;;;;;;13.73;3.97;;;;;;;34.36;18.52;99783.94;5056703;28;20036;-78
2022/10/10 08:22:26;;;;;;;9.10;4.03;;;;;;;34.19;18.80;99789.38;5039648;28;20037;-79
2022/10/10 08:24:51;;;;;;;9.90;4.10;;;;;;;34.13;19.03;99790.34;5039318;28;20096;-76
2022/10/10 08:27:18;;;;;;;13.73;3.70;;;;;;;33.92;19.08;99786.47;5039572;28;20045;-78
2022/10/10 08:29:43;;;;;;;8.93;3.95;;;;;;;33.94;19.21;99786.22;5057079;28;20037;-78
2022/10/10 08:32:09;;;;;;;13.80;4.18;;;;;;;33.93;19.23;99784.63;5040073;28;20041;-77
2022/10/10 08:34:35;;;;;;;12.43;3.97;;;;;;;33.82;19.66;99795.25;5039611;28;20043;-76
2022/10/10 08:37:00;;;;;;;10.52;4.10;;;;;;;33.76;19.14;99798.94;5056220;28;20053;-77
2022/10/10 08:39:26;;;;;;;14.07;4.32;;;;;;;33.57;19.69;99797.50;5039802;28;20029;-77
2022/10/10 08:41:55;;;;;;;13.77;4.20;;;;;;;33.58;19.33;99796.44;5055964;28;20036;-77
2022/10/10 08:44:38;;;;;;;10.95;3.90;;;;;;;33.58;19.68;99797.25;5056737;28;20115;-77
2022/10/10 08:47:09;;;;;;;11.05;4.10;;;;;;;33.56;19.95;99790.44;5056082;28;20033;-78
2022/10/10 08:49:54;;;;;;;9.10;3.90;;;;;;;33.38;19.93;99792.28;5073807;28;20032;-78
2022/10/10 08:52:32;;;;;;;14.55;4.82;;;;;;;33.09;20.16;99794.13;5072876;28;20040;-78
2022/10/10 08:55:00;;;;;;;10.60;3.70;;;;;;;32.89;20.71;99795.34;5039392;28;20531;-77
2022/10/10 08:57:32;;;;;;;14.63;4.30;;;;;;;32.67;20.79;99797.03;5072590;28;20029;-77
2022/10/10 09:00:00;;;;;;;16.52;4.72;;;;;;;32.51;21.31;99795.84;5072777;28;20071;-77
2022/10/10 09:02:40;;;;;;;7.18;4.18;;;;;;;32.41;21.08;99796.44;5056349;28;20035;-77
2022/10/10 09:05:12;;;;;;;12.95;4.40;;;;;;;32.46;21.40;99801.94;5039166;28;20029;-78
2022/10/10 09:07:56;;;;;;;10.40;4.50;;;;;;;32.50;21.24;99794.19;5039380;28;20029;-76
2022/10/10 09:10:30;;;;;;;13.23;4.30;;;;;;;32.60;21.16;99794.41;5072175;28;20465;-76
2022/10/10 09:13:11;;;;;;;10.10;4.53;;;;;;;32.68;21.39;99801.38;5072431;28;20063;-76
2022/10/10 09:15:46;;;;;;;8.50;4.28;;;;;;;32.87;20.92;99796.66;5073666;28;20068;-77
2022/10/10 09:18:24;;;;;;;8.77;4.80;;;;;;;32.95;20.96;99794.38;5056027;28;20110;-78
2022/10/10 09:20:58;;;;;;;;;;;;;;;32.97;21.22;99791.44;5074057;28;20029;-78
2022/10/10 09:23:54;;;;;;;15.32;4.93;;;;;;;33.13;21.15;99787.16;5072061;28;19935;-76
2022/10/10 09:26:27;;;;;;;49.23;9.03;;;;;;;33.35;21.02;99790.88;5069250;28;20093;-76
2022/10/10 09:28:56;;;;;;;75.70;11.20;;;;;;;33.54;20.48;99791.50;5055898;28;20047;-76
2022/10/10 09:31:45;;;;;;;51.35;8.27;;;;;;;33.67;20.33;99797.69;5055559;28;20032;-76
2022/10/10 09:34:50;;;;;;;26.27;7.18;;;;;;;33.68;20.15;99786.63;5038833;28;20066;-77
2022/10/10 09:37:20;;;;;;;20.75;5.57;;;;;;;33.70;20.41;99781.81;5051177;28;20090;-78
2022/10/10 09:39:59;;;;;;;14.63;5.65;;;;;;;33.77;20.31;99784.34;5038601;28;20123;-77
2022/10/10 09:42:30;;;;;;;15.25;5.05;;;;;;;33.79;20.25;99789.53;5055768;28;20040;-78
2022/10/10 09:44:56;;;;;;;13.60;4.80;;;;;;;33.68;20.51;99778.50;5055243;28;20093;-80
2022/10/10 09:47:22;;;;;;;12.80;4.30;;;;;;;33.67;20.48;99776.03;5054869;28;20032;-81
2022/10/10 09:49:47;;;;;;;11.32;4.40;;;;;;;33.72;20.36;99776.97;5037861;28;20037;-77
2022/10/10 09:52:23;;;;;;;8.57;4.03;;;;;;;33.79;20.37;99771.38;5038219;28;20032;-79
2022/10/10 09:55:10;;;;;;;10.13;4.30;;;;;;;33.79;20.34;99770.56;5055049;28;20403;-77
2022/10/10 09:57:38;;;;;;;9.75;4.03;;;;;;;33.76;20.46;99763.75;5071919;28;20037;-77
2022/10/10 10:00:24;;;;;;;10.40;4.05;;;;;;;33.53;20.63;99761.97;5055014;28;20561;-78
2022/10/10 10:03:09;;;;;;;11.05;4.38;;;;;;;33.48;21.02;99757.28;5038882;28;20032;-77
2022/10/10 10:05:34;;;;;;;16.00;4.30;;;;;;;33.44;20.91;99761.53;5055713;28;20475;-78
2022/10/10 10:08:00;;;;;;;10.40;4.28;;;;;;;33.34;21.04;99748.66;5054585;28;20039;-78
2022/10/10 10:10:26;;;;;;;8.77;4.10;;;;;;;33.12;21.05;99753.88;5037911;28;20063;-77
2022/10/10 10:12:51;;;;;;;13.77;5.50;;;;;;;32.97;21.17;99745.47;5054673;28;20032;-77
2022/10/10 10:15:18;;;;;;;13.38;4.97;;;;;;;32.93;21.26;99753.25;5037580;28;20028;-77
2022/10/10 10:17:43;;;;;;;8.90;4.75;;;;;;;32.77;21.54;99752.13;5054767;28;20047;-77
2022/10/10 10:20:27;;;;;;;10.23;4.35;;;;;;;32.72;21.34;99743.06;5037755;28;20403;-77
2022/10/10 10:22:53;;;;;;;11.35;3.78;;;;;;;32.62;21.27;99741.78;5072415;28;20610;-78
2022/10/10 10:25:32;;;;;;;12.35;4.30;;;;;;;32.52;21.53;99736.16;5037740;28;20032;-78
2022/10/10 10:28:09;;;;;;;8.32;4.30;;;;;;;32.35;21.55;99735.22;5054170;28;20474;-78
2022/10/10 10:30:35;;;;;;;9.95;3.97;;;;;;;32.20;21.77;99735.72;5072233;28;20047;-76
2022/10/10 10:33:32;;;;;;;10.27;4.20;;;;;;;32.09;21.72;99738.16;5054662;28;20484;-78
2022/10/10 10:36:23;;;;;;;13.20;4.10;;;;;;;31.92;21.80;99732.59;5070849;28;20024;-77
2022/10/10 10:39:02;;;;;;;15.75;3.90;;;;;;;31.83;22.17;99725.88;5062607;28;20125;-78
2022/10/10 10:41:53;;;;;;;7.75;3.80;;;;;;;31.71;22.34;99716.97;5071297;28;20048;-77
2022/10/10 10:44:46;;;;;;;8.40;3.60;;;;;;;31.62;22.18;99719.19;5071387;28;20043;-76
2022/10/10 10:47:40;;;;;;;7.28;3.88;;;;;;;31.53;22.25;99712.47;5072628;28;20400;-76
2022/10/10 10:50:20;;;;;;;6.07;3.60;;;;;;;31.42;22.88;99715.94;5060229;28;20036;-76
2022/10/10 10:53:07;;;;;;;12.85;4.20;;;;;;;31.27;22.48;99717.16;5075309;28;20448;-79
2022/10/10 10:55:35;;;;;;;13.05;4.05;;;;;;;31.18;22.77;99711.25;5076025;28;20064;-79
2022/10/10 10:58:32;;;;;;;15.75;4.15;;;;;;;30.98;22.92;99703.47;5074679;28;20484;-78
2022/10/10 11:01:01;;;;;;;8.55;4.20;;;;;;;30.91;23.13;99702.69;5043988;28;20741;-79
2022/10/10 11:03:50;;;;;;;12.45;4.13;;;;;;;30.81;22.86;99710.50;5041477;28;20028;-77
2022/10/10 11:06:37;;;;;;;8.98;3.75;;;;;;;30.66;23.17;99702.78;5059057;28;20128;-78
2022/10/10 11:09:13;;;;;;;11.07;3.97;;;;;;;30.61;23.08;99705.34;5057813;28;20517;-79
2022/10/10 11:12:09;;;;;;;11.63;4.18;;;;;;;30.61;23.30;99695.38;5074845;28;20101;-77
2022/10/10 11:14:35;;;;;;;8.77;3.80;;;;;;;30.53;23.35;99690.28;5075188;28;20028;-77
2022/10/10 11:17:27;;;;;;;15.10;3.97;;;;;;;30.38;23.85;99679.91;5075508;28;20049;-76
2022/10/10 11:20:02;;;;;;;14.48;3.90;;;;;;;30.31;23.75;99685.34;5066175;28;20491;-76
2022/10/10 11:22:52;;;;;;;8.55;4.03;;;;;;;30.26;23.46;99677.09;5057693;28;20075;-79
2022/10/10 11:25:25;;;;;;;10.13;3.80;;;;;;;30.10;23.48;99670.41;5060265;28;20044;-77
2022/10/10 11:27:59;;;;;;;10.25;4.13;;;;;;;29.86;24.12;99671.28;5041110;28;20039;-77
2022/10/10 11:30:25;;;;;;;8.35;3.92;;;;;;;29.71;24.05;99658.13;5057593;28;20074;-79
2022/10/10 11:33:00;;;;;;;9.77;3.90;;;;;;;29.72;24.36;99670.53;5040813;28;20032;-77
2022/10/10 11:35:44;;;;;;;11.20;3.95;;;;;;;29.56;24.16;99671.91;5074188;28;20028;-76
2022/10/10 11:38:15;;;;;;;9.80;3.72;;;;;;;29.36;24.75;99661.28;5075382;28;20021;-77
2022/10/10 11:41:15;;;;;;;8.98;3.83;;;;;;;29.22;24.94;99664.06;5073902;28;20029;-77